Terminal Aerodrome Forecast
Issued by NWS

Home | Current Version | Previous Version | Text Only | Print | Product List | Glossary On
Versions: 1 2 3 4 5 6 7 8 9 10 11 12 13 14
000
FTUS43 KAPX 040525
TAFPLN
TAF
KPLN 040525Z 0406/0506 22008KT 6SM -SHRA SCT025 OVC050
      WS020/22038KT
     FM040700 23007KT 4SM -SHRA BR OVC030 WS020/25035KT
     FM041300 29010KT P6SM VCSH SCT050 BKN100
     FM041500 30010G17KT P6SM SCT050
     FM050100 VRB03KT P6SM SCT250=

USA.gov is the U.S. government's official web portal to all federal, state and local government web resources and services.